sensor_id;sensor_type;location;lat;lon;timestamp;pressure;altitude;pressure_sealevel;temperature;humidity
50590;BME280;36547;50.514;30.840;2023-08-07T00:00:40;98560.63;;;26.65;56.12
50590;BME280;36547;50.514;30.840;2023-08-07T00:01:47;98559.78;;;26.65;56.19
50590;BME280;36547;50.514;30.840;2023-08-07T00:02:53;98547.43;;;26.62;56.28
50590;BME280;36547;50.514;30.840;2023-08-07T00:03:58;98545.32;;;26.64;56.32
50590;BME280;36547;50.514;30.840;2023-08-07T00:05:05;98538.63;;;26.60;56.40
50590;BME280;36547;50.514;30.840;2023-08-07T00:06:13;98547.87;;;26.59;56.46
50590;BME280;36547;50.514;30.840;2023-08-07T00:07:18;98541.80;;;26.57;56.46
50590;BME280;36547;50.514;30.840;2023-08-07T00:08:27;98547.25;;;26.57;56.41
50590;BME280;36547;50.514;30.840;2023-08-07T00:09:30;98540.34;;;26.55;56.51
50590;BME280;36547;50.514;30.840;2023-08-07T00:10:34;98534.09;;;26.54;56.58
50590;BME280;36547;50.514;30.840;2023-08-07T00:11:40;98539.29;;;26.56;56.49
50590;BME280;36547;50.514;30.840;2023-08-07T00:12:43;98538.09;;;26.52;56.60
50590;BME280;36547;50.514;30.840;2023-08-07T00:13:46;98529.30;;;26.50;56.71
50590;BME280;36547;50.514;30.840;2023-08-07T00:14:52;98528.02;;;26.52;56.76
50590;BME280;36547;50.514;30.840;2023-08-07T00:16:16;98527.19;;;26.52;56.80
50590;BME280;36547;50.514;30.840;2023-08-07T00:17:23;98523.63;;;26.51;56.77
50590;BME280;36547;50.514;30.840;2023-08-07T00:18:32;98519.23;;;26.50;56.87
50590;BME280;36547;50.514;30.840;2023-08-07T00:19:41;98519.66;;;26.47;56.95
50590;BME280;36547;50.514;30.840;2023-08-07T00:20:46;98517.99;;;26.46;57.00
50590;BME280;36547;50.514;30.840;2023-08-07T00:21:51;98520.72;;;26.46;57.05
50590;BME280;36547;50.514;30.840;2023-08-07T00:22:56;98514.65;;;26.44;57.10
50590;BME280;36547;50.514;30.840;2023-08-07T00:24:01;98522.61;;;26.46;57.11
50590;BME280;36547;50.514;30.840;2023-08-07T00:25:08;98516.76;;;26.42;57.11
50590;BME280;36547;50.514;30.840;2023-08-07T00:26:11;98518.42;;;26.43;57.19
50590;BME280;36547;50.514;30.840;2023-08-07T00:27:17;98513.45;;;26.40;57.27
50590;BME280;36547;50.514;30.840;2023-08-07T00:28:26;98519.95;;;26.39;57.38
50590;BME280;36547;50.514;30.840;2023-08-07T00:29:33;98512.83;;;26.38;57.35
50590;BME280;36547;50.514;30.840;2023-08-07T00:30:36;98516.61;;;26.37;57.41
50590;BME280;36547;50.514;30.840;2023-08-07T00:31:40;98512.21;;;26.36;57.55
50590;BME280;36547;50.514;30.840;2023-08-07T00:32:47;98508.87;;;26.34;57.54
50590;BME280;36547;50.514;30.840;2023-08-07T00:33:52;98502.58;;;26.33;57.65
50590;BME280;36547;50.514;30.840;2023-08-07T00:34:58;98503.42;;;26.34;57.58
50590;BME280;36547;50.514;30.840;2023-08-07T00:36:04;98494.63;;;26.32;57.54
50590;BME280;36547;50.514;30.840;2023-08-07T00:37:11;98491.06;;;26.31;57.64
50590;BME280;36547;50.514;30.840;2023-08-07T00:38:18;98494.63;;;26.32;57.62
50590;BME280;36547;50.514;30.840;2023-08-07T00:39:23;98490.63;;;26.28;57.72
50590;BME280;36547;50.514;30.840;2023-08-07T00:40:35;98484.16;;;26.29;57.77
50590;BME280;36547;50.514;30.840;2023-08-07T00:41:36;98480.61;;;26.28;57.77
50590;BME280;36547;50.514;30.840;2023-08-07T00:42:38;98487.91;;;26.28;57.82
50590;BME280;36547;50.514;30.840;2023-08-07T00:43:42;98485.19;;;26.28;57.82
50590;BME280;36547;50.514;30.840;2023-08-07T00:44:45;98483.11;;;26.30;57.79
50590;BME280;36547;50.514;30.840;2023-08-07T00:45:53;98483.33;;;26.28;57.82
50590;BME280;36547;50.514;30.840;2023-08-07T00:47:00;98476.17;;;26.27;57.85
50590;BME280;36547;50.514;30.840;2023-08-07T00:48:05;98486.23;;;26.27;58.00
50590;BME280;36547;50.514;30.840;2023-08-07T00:49:09;98480.79;;;26.27;58.00
50590;BME280;36547;50.514;30.840;2023-08-07T00:50:16;98476.39;;;26.26;58.04
50590;BME280;36547;50.514;30.840;2023-08-07T00:51:23;98490.02;;;26.26;58.07
50590;BME280;36547;50.514;30.840;2023-08-07T00:52:30;98487.08;;;26.27;58.05
50590;BME280;36547;50.514;30.840;2023-08-07T00:53:40;98482.46;;;26.28;58.16
50590;BME280;36547;50.514;30.840;2023-08-07T00:54:46;98479.95;;;26.26;58.06
50590;BME280;36547;50.514;30.840;2023-08-07T00:55:51;98477.02;;;26.28;58.00
50590;BME280;36547;50.514;30.840;2023-08-07T00:57:01;98477.23;;;26.26;58.02
50590;BME280;36547;50.514;30.840;2023-08-07T00:58:08;98480.79;;;26.27;58.07
50590;BME280;36547;50.514;30.840;2023-08-07T00:59:13;98482.93;;;26.25;58.18
50590;BME280;36547;50.514;30.840;2023-08-07T01:00:22;98477.48;;;26.25;58.25
50590;BME280;36547;50.514;30.840;2023-08-07T01:01:28;98478.31;;;26.25;58.18
50590;BME280;36547;50.514;30.840;2023-08-07T01:02:33;98474.14;;;26.23;58.16
50590;BME280;36547;50.514;30.840;2023-08-07T01:03:42;98480.42;;;26.23;58.14
50590;BME280;36547;50.514;30.840;2023-08-07T01:04:49;98475.81;;;26.24;58.25
50590;BME280;36547;50.514;30.840;2023-08-07T01:05:53;98474.14;;;26.23;58.33
50590;BME280;36547;50.514;30.840;2023-08-07T01:07:07;98472.47;;;26.22;58.27
50590;BME280;36547;50.514;30.840;2023-08-07T01:08:13;98467.02;;;26.22;58.20
50590;BME280;36547;50.514;30.840;2023-08-07T01:09:16;98466.41;;;26.20;58.35
50590;BME280;36547;50.514;30.840;2023-08-07T01:10:23;98469.13;;;26.20;58.49
50590;BME280;36547;50.514;30.840;2023-08-07T01:11:43;98467.45;;;26.19;58.42
50590;BME280;36547;50.514;30.840;2023-08-07T01:14:25;98456.27;;;26.27;58.38
50590;BME280;36547;50.514;30.840;2023-08-07T01:15:28;98458.05;;;26.15;58.50
50590;BME280;36547;50.514;30.840;2023-08-07T01:16:49;98455.11;;;26.16;58.46
50590;BME280;36547;50.514;30.840;2023-08-07T01:17:53;98446.94;;;26.16;58.44
50590;BME280;36547;50.514;30.840;2023-08-07T01:18:57;98450.71;;;26.15;58.52
50590;BME280;36547;50.514;30.840;2023-08-07T01:20:01;98452.59;;;26.15;58.49
50590;BME280;36547;50.514;30.840;2023-08-07T01:21:04;98455.33;;;26.15;58.59
50590;BME280;36547;50.514;30.840;2023-08-07T01:22:14;98451.15;;;26.12;58.81
50590;BME280;36547;50.514;30.840;2023-08-07T01:23:16;98450.31;;;26.12;58.72
50590;BME280;36547;50.514;30.840;2023-08-07T01:24:19;98450.93;;;26.14;58.71
50590;BME280;36547;50.514;30.840;2023-08-07T01:25:21;98453.03;;;26.12;58.66
50590;BME280;36547;50.514;30.840;2023-08-07T01:26:24;98448.89;;;26.09;58.66
50590;BME280;36547;50.514;30.840;2023-08-07T01:27:50;98449.11;;;26.08;58.80
50590;BME280;36547;50.514;30.840;2023-08-07T01:30:36;98452.38;;;26.16;58.70
50590;BME280;36547;50.514;30.840;2023-08-07T01:31:41;98448.30;;;26.00;58.93
50590;BME280;36547;50.514;30.840;2023-08-07T01:32:49;98445.36;;;26.02;58.91
50590;BME280;36547;50.514;30.840;2023-08-07T01:34:01;98440.50;;;26.11;58.89
50590;BME280;36547;50.514;30.840;2023-08-07T01:35:05;98444.97;;;25.98;59.10
50590;BME280;36547;50.514;30.840;2023-08-07T01:36:14;98443.08;;;25.99;59.06
50590;BME280;36547;50.514;30.840;2023-08-07T01:37:21;98435.12;;;25.97;59.11
50590;BME280;36547;50.514;30.840;2023-08-07T01:38:27;98439.52;;;25.98;59.13
50590;BME280;36547;50.514;30.840;2023-08-07T01:39:31;98430.52;;;25.98;59.11
50590;BME280;36547;50.514;30.840;2023-08-07T01:40:34;98432.86;;;25.94;59.17
50590;BME280;36547;50.514;30.840;2023-08-07T01:41:41;98431.81;;;25.95;59.11
50590;BME280;36547;50.514;30.840;2023-08-07T01:42:44;98431.20;;;25.93;59.17
50590;BME280;36547;50.514;30.840;2023-08-07T01:43:47;98430.36;;;25.93;59.21
50590;BME280;36547;50.514;30.840;2023-08-07T01:44:50;98432.25;;;25.92;59.21
50590;BME280;36547;50.514;30.840;2023-08-07T01:45:52;98437.08;;;25.90;59.36
50590;BME280;36547;50.514;30.840;2023-08-07T01:46:58;98427.45;;;25.88;59.44
50590;BME280;36547;50.514;30.840;2023-08-07T01:48:00;98426.62;;;25.87;59.56
50590;BME280;36547;50.514;30.840;2023-08-07T01:49:04;98424.95;;;25.86;59.47
50590;BME280;36547;50.514;30.840;2023-08-07T01:50:07;98421.17;;;25.87;59.39
50590;BME280;36547;50.514;30.840;2023-08-07T01:51:09;98419.50;;;25.86;59.53
50590;BME280;36547;50.514;30.840;2023-08-07T01:52:12;98422.44;;;25.85;59.59
50590;BME280;36547;50.514;30.840;2023-08-07T01:53:14;98422.44;;;25.85;59.54
50590;BME280;36547;50.514;30.840;2023-08-07T01:54:17;98419.94;;;25.83;59.62
50590;BME280;36547;50.514;30.840;2023-08-07T01:55:20;98424.33;;;25.84;59.65
50590;BME280;36547;50.514;30.840;2023-08-07T01:56:27;98422.44;;;25.85;59.65
50590;BME280;36547;50.514;30.840;2023-08-07T01:57:29;98410.13;;;25.82;59.56
50590;BME280;36547;50.514;30.840;2023-08-07T01:58:31;98415.58;;;25.82;59.62
50590;BME280;36547;50.514;30.840;2023-08-07T01:59:34;98410.56;;;25.79;59.61
50590;BME280;36547;50.514;30.840;2023-08-07T02:00:37;98408.89;;;25.78;59.71
50590;BME280;36547;50.514;30.840;2023-08-07T02:01:39;98406.17;;;25.78;59.78
50590;BME280;36547;50.514;30.840;2023-08-07T02:02:42;98408.89;;;25.78;59.83
50590;BME280;36547;50.514;30.840;2023-08-07T02:03:44;98411.61;;;25.78;59.83
50590;BME280;36547;50.514;30.840;2023-08-07T02:04:46;98402.83;;;25.76;59.83
50590;BME280;36547;50.514;30.840;2023-08-07T02:05:50;98407.22;;;25.77;59.73
50590;BME280;36547;50.514;30.840;2023-08-07T02:06:52;98395.72;;;25.75;59.92
50590;BME280;36547;50.514;30.840;2023-08-07T02:07:56;98402.83;;;25.76;59.82
50590;BME280;36547;50.514;30.840;2023-08-07T02:08:58;98400.32;;;25.75;59.94
50590;BME280;36547;50.514;30.840;2023-08-07T02:10:01;98397.81;;;25.73;59.91
50590;BME280;36547;50.514;30.840;2023-08-07T02:11:04;98396.98;;;25.73;59.88
50590;BME280;36547;50.514;30.840;2023-08-07T02:12:07;98386.93;;;25.73;59.85
50590;BME280;36547;50.514;30.840;2023-08-07T02:13:10;98389.03;;;25.71;59.98
50590;BME280;36547;50.514;30.840;2023-08-07T02:14:12;98386.09;;;25.73;59.94
50590;BME280;36547;50.514;30.840;2023-08-07T02:15:14;98376.05;;;25.73;59.97
50590;BME280;36547;50.514;30.840;2023-08-07T02:16:17;98377.71;;;25.74;59.95
50590;BME280;36547;50.514;30.840;2023-08-07T02:17:21;98374.99;;;25.74;59.94
50590;BME280;36547;50.514;30.840;2023-08-07T02:18:24;98359.71;;;25.73;59.95
50590;BME280;36547;50.514;30.840;2023-08-07T02:19:27;98361.38;;;25.74;59.94
50590;BME280;36547;50.514;30.840;2023-08-07T02:20:29;98371.44;;;25.74;59.96
50590;BME280;36547;50.514;30.840;2023-08-07T02:21:32;98378.14;;;25.71;60.13
50590;BME280;36547;50.514;30.840;2023-08-07T02:22:35;98389.03;;;25.71;60.07
50590;BME280;36547;50.514;30.840;2023-08-07T02:23:37;98383.59;;;25.71;60.13
50590;BME280;36547;50.514;30.840;2023-08-07T02:24:40;98389.03;;;25.71;60.07
50590;BME280;36547;50.514;30.840;2023-08-07T02:25:42;98384.05;;;25.68;60.30
50590;BME280;36547;50.514;30.840;2023-08-07T02:26:44;98387.36;;;25.70;60.20
50590;BME280;36547;50.514;30.840;2023-08-07T02:27:47;98375.89;;;25.68;60.21
50590;BME280;36547;50.514;30.840;2023-08-07T02:28:49;98382.75;;;25.70;60.36
50590;BME280;36547;50.514;30.840;2023-08-07T02:29:51;98386.52;;;25.69;60.41
50590;BME280;36547;50.514;30.840;2023-08-07T02:30:54;98384.05;;;25.68;60.46
50590;BME280;36547;50.514;30.840;2023-08-07T02:31:56;98379.20;;;25.70;60.39
50590;BME280;36547;50.514;30.840;2023-08-07T02:32:59;98379.41;;;25.68;60.46
50590;BME280;36547;50.514;30.840;2023-08-07T02:34:01;98384.05;;;25.68;60.40
50590;BME280;36547;50.514;30.840;2023-08-07T02:35:04;98384.86;;;25.68;60.31
50590;BME280;36547;50.514;30.840;2023-08-07T02:36:08;98375.89;;;25.68;60.40
50590;BME280;36547;50.514;30.840;2023-08-07T02:37:10;98380.71;;;25.66;60.37
50590;BME280;36547;50.514;30.840;2023-08-07T02:38:12;98391.59;;;25.66;60.49
50590;BME280;36547;50.514;30.840;2023-08-07T02:39:15;98397.04;;;25.66;60.50
50590;BME280;36547;50.514;30.840;2023-08-07T02:40:18;98395.16;;;25.66;60.47
50590;BME280;36547;50.514;30.840;2023-08-07T02:41:21;98391.59;;;25.66;60.39
50590;BME280;36547;50.514;30.840;2023-08-07T02:42:23;98393.27;;;25.67;60.49
50590;BME280;36547;50.514;30.840;2023-08-07T02:43:25;98396.42;;;25.64;60.46
50590;BME280;36547;50.514;30.840;2023-08-07T02:44:28;98397.47;;;25.63;60.51
50590;BME280;36547;50.514;30.840;2023-08-07T02:45:31;98389.52;;;25.61;60.77
50590;BME280;36547;50.514;30.840;2023-08-07T02:46:35;98397.88;;;25.60;60.84
50590;BME280;36547;50.514;30.840;2023-08-07T02:47:38;98397.88;;;25.60;61.05
50590;BME280;36547;50.514;30.840;2023-08-07T02:48:43;98395.36;;;25.58;61.26
50590;BME280;36547;50.514;30.840;2023-08-07T02:49:46;98392.86;;;25.57;61.53
50590;BME280;36547;50.514;30.840;2023-08-07T02:50:48;98381.97;;;25.57;61.41
50590;BME280;36547;50.514;30.840;2023-08-07T02:51:51;98374.24;;;25.54;61.69
50590;BME280;36547;50.514;30.840;2023-08-07T02:52:54;98381.20;;;25.50;61.89
50590;BME280;36547;50.514;30.840;2023-08-07T02:53:56;98379.53;;;25.49;61.74
50590;BME280;36547;50.514;30.840;2023-08-07T02:54:59;98379.95;;;25.46;62.06
50590;BME280;36547;50.514;30.840;2023-08-07T02:56:01;98387.50;;;25.44;62.06
50590;BME280;36547;50.514;30.840;2023-08-07T02:57:04;98388.55;;;25.43;62.43
50590;BME280;36547;50.514;30.840;2023-08-07T02:58:07;98391.70;;;25.40;62.32
50590;BME280;36547;50.514;30.840;2023-08-07T02:59:10;98397.14;;;25.40;62.09
50590;BME280;36547;50.514;30.840;2023-08-07T03:00:13;98391.70;;;25.40;62.51
50590;BME280;36547;50.514;30.840;2023-08-07T03:01:16;98386.25;;;25.40;62.60
50590;BME280;36547;50.514;30.840;2023-08-07T03:02:18;98391.11;;;25.38;62.74
50590;BME280;36547;50.514;30.840;2023-08-07T03:03:21;98399.27;;;25.38;62.84
50590;BME280;36547;50.514;30.840;2023-08-07T03:04:23;98399.27;;;25.38;63.10
50590;BME280;36547;50.514;30.840;2023-08-07T03:05:26;98405.14;;;25.34;63.11
50590;BME280;36547;50.514;30.840;2023-08-07T03:06:29;98407.02;;;25.34;63.11
50590;BME280;36547;50.514;30.840;2023-08-07T03:07:32;98410.16;;;25.31;63.24
50590;BME280;36547;50.514;30.840;2023-08-07T03:08:35;98403.05;;;25.30;63.23
50590;BME280;36547;50.514;30.840;2023-08-07T03:09:37;98403.69;;;25.25;62.99
50590;BME280;36547;50.514;30.840;2023-08-07T03:10:39;98397.66;;;25.23;62.84
50590;BME280;36547;50.514;30.840;2023-08-07T03:11:42;98395.99;;;25.22;63.01
50590;BME280;36547;50.514;30.840;2023-08-07T03:12:44;98395.99;;;25.22;63.14
50590;BME280;36547;50.514;30.840;2023-08-07T03:13:46;98404.36;;;25.21;63.10
50590;BME280;36547;50.514;30.840;2023-08-07T03:14:49;98404.58;;;25.19;63.14
50590;BME280;36547;50.514;30.840;2023-08-07T03:17:09;98401.22;;;25.24;63.24
50590;BME280;36547;50.514;30.840;2023-08-07T03:18:11;98406.92;;;25.09;63.49
50590;BME280;36547;50.514;30.840;2023-08-07T03:19:14;98406.30;;;25.07;63.49
50590;BME280;36547;50.514;30.840;2023-08-07T03:20:17;98402.75;;;25.07;63.44
50590;BME280;36547;50.514;30.840;2023-08-07T03:21:19;98397.52;;;25.05;63.58
50590;BME280;36547;50.514;30.840;2023-08-07T03:22:22;98389.16;;;25.07;63.63
50590;BME280;36547;50.514;30.840;2023-08-07T03:23:26;98385.59;;;25.06;63.64
50590;BME280;36547;50.514;30.840;2023-08-07T03:24:29;98382.25;;;25.04;63.76
50590;BME280;36547;50.514;30.840;2023-08-07T03:25:32;98389.37;;;25.05;63.86
50590;BME280;36547;50.514;30.840;2023-08-07T03:26:34;98396.48;;;25.06;63.89
50590;BME280;36547;50.514;30.840;2023-08-07T03:27:37;98393.97;;;25.05;63.95
50590;BME280;36547;50.514;30.840;2023-08-07T03:28:40;98396.69;;;25.05;64.09
50590;BME280;36547;50.514;30.840;2023-08-07T03:29:42;98387.07;;;25.02;64.04
50590;BME280;36547;50.514;30.840;2023-08-07T03:30:47;98389.79;;;25.02;64.12
50590;BME280;36547;50.514;30.840;2023-08-07T03:31:49;98377.25;;;25.01;64.11
50590;BME280;36547;50.514;30.840;2023-08-07T03:32:52;98374.73;;;24.99;64.11
50590;BME280;36547;50.514;30.840;2023-08-07T03:33:55;98376.41;;;25.00;64.22
50590;BME280;36547;50.514;30.840;2023-08-07T03:34:57;98378.30;;;25.00;64.38
50590;BME280;36547;50.514;30.840;2023-08-07T03:36:01;98381.84;;;25.00;64.45
50590;BME280;36547;50.514;30.840;2023-08-07T03:37:05;98378.30;;;25.00;64.50
50590;BME280;36547;50.514;30.840;2023-08-07T03:38:08;98387.07;;;25.02;64.61
50590;BME280;36547;50.514;30.840;2023-08-07T03:39:11;98378.91;;;25.02;64.53
50590;BME280;36547;50.514;30.840;2023-08-07T03:40:14;98386.86;;;25.04;64.71
50590;BME280;36547;50.514;30.840;2023-08-07T03:41:16;98382.47;;;25.03;64.63
50590;BME280;36547;50.514;30.840;2023-08-07T03:42:19;98378.08;;;25.01;64.79
50590;BME280;36547;50.514;30.840;2023-08-07T03:43:22;98382.68;;;25.01;64.89
50590;BME280;36547;50.514;30.840;2023-08-07T03:44:25;98379.75;;;25.03;64.96
50590;BME280;36547;50.514;30.840;2023-08-07T03:45:28;98378.91;;;25.02;65.04
50590;BME280;36547;50.514;30.840;2023-08-07T03:46:31;98383.73;;;25.00;65.16
50590;BME280;36547;50.514;30.840;2023-08-07T03:47:33;98379.13;;;25.00;65.24
50590;BME280;36547;50.514;30.840;2023-08-07T03:48:35;98367.84;;;24.97;65.27
50590;BME280;36547;50.514;30.840;2023-08-07T03:49:38;98367.63;;;24.98;65.45
50590;BME280;36547;50.514;30.840;2023-08-07T03:50:40;98382.06;;;24.99;66.00
50590;BME280;36547;50.514;30.840;2023-08-07T03:51:43;98373.91;;;24.99;65.99
50590;BME280;36547;50.514;30.840;2023-08-07T03:52:46;98374.33;;;24.96;65.96
50590;BME280;36547;50.514;30.840;2023-08-07T03:53:50;98372.69;;;24.95;65.95
50590;BME280;36547;50.514;30.840;2023-08-07T03:54:52;98372.69;;;24.95;66.05
50590;BME280;36547;50.514;30.840;2023-08-07T03:55:54;98385.00;;;24.91;66.24
50590;BME280;36547;50.514;30.840;2023-08-07T03:56:58;98393.57;;;24.88;66.44
50590;BME280;36547;50.514;30.840;2023-08-07T03:58:00;98396.71;;;24.85;66.54
50590;BME280;36547;50.514;30.840;2023-08-07T03:59:02;98399.84;;;24.82;66.78
50590;BME280;36547;50.514;30.840;2023-08-07T04:00:06;98386.05;;;24.83;66.62
50590;BME280;36547;50.514;30.840;2023-08-07T04:01:15;98376.22;;;24.82;67.00
50590;BME280;36547;50.514;30.840;2023-08-07T04:02:17;98385.67;;;24.80;67.18
50590;BME280;36547;50.514;30.840;2023-08-07T04:03:20;98377.72;;;24.78;67.47
50590;BME280;36547;50.514;30.840;2023-08-07T04:04:23;98377.30;;;24.81;67.18
50590;BME280;36547;50.514;30.840;2023-08-07T04:05:25;98372.29;;;24.78;67.15
50590;BME280;36547;50.514;30.840;2023-08-07T04:06:28;98374.80;;;24.80;67.19
50590;BME280;36547;50.514;30.840;2023-08-07T04:07:30;98373.96;;;24.79;66.99
50590;BME280;36547;50.514;30.840;2023-08-07T04:08:32;98372.67;;;24.82;66.82
50590;BME280;36547;50.514;30.840;2023-08-07T04:09:35;98365.59;;;24.81;66.87
50590;BME280;36547;50.514;30.840;2023-08-07T04:10:38;98364.52;;;24.82;67.00
50590;BME280;36547;50.514;30.840;2023-08-07T04:11:42;98359.33;;;24.80;66.83
50590;BME280;36547;50.514;30.840;2023-08-07T04:12:45;98361.80;;;24.82;66.91
50590;BME280;36547;50.514;30.840;2023-08-07T04:13:47;98370.58;;;24.84;66.89
50590;BME280;36547;50.514;30.840;2023-08-07T04:14:50;98366.43;;;24.81;66.75
50590;BME280;36547;50.514;30.840;2023-08-07T04:15:52;98370.58;;;24.84;66.93
50590;BME280;36547;50.514;30.840;2023-08-07T04:16:55;98371.63;;;24.83;66.55
50590;BME280;36547;50.514;30.840;2023-08-07T04:17:57;98366.19;;;24.83;66.67
50590;BME280;36547;50.514;30.840;2023-08-07T04:19:00;98365.14;;;24.84;66.60
50590;BME280;36547;50.514;30.840;2023-08-07T04:20:05;98362.42;;;24.84;66.55
50590;BME280;36547;50.514;30.840;2023-08-07T04:21:08;98354.27;;;24.84;66.50
50590;BME280;36547;50.514;30.840;2023-08-07T04:22:10;98355.11;;;24.84;66.46
50590;BME280;36547;50.514;30.840;2023-08-07T04:23:13;98352.39;;;24.84;66.52
50590;BME280;36547;50.514;30.840;2023-08-07T04:24:15;98353.44;;;24.83;66.53
50590;BME280;36547;50.514;30.840;2023-08-07T04:25:18;98349.05;;;24.82;66.32
50590;BME280;36547;50.514;30.840;2023-08-07T04:26:20;98350.72;;;24.83;66.50
50590;BME280;36547;50.514;30.840;2023-08-07T04:27:23;98348.84;;;24.84;66.64
50590;BME280;36547;50.514;30.840;2023-08-07T04:28:27;98358.88;;;24.83;66.68
50590;BME280;36547;50.514;30.840;2023-08-07T04:29:31;98352.17;;;24.86;66.75
50590;BME280;36547;50.514;30.840;2023-08-07T04:30:34;98354.69;;;24.87;66.84
50590;BME280;36547;50.514;30.840;2023-08-07T04:31:36;98351.75;;;24.89;66.72
50590;BME280;36547;50.514;30.840;2023-08-07T04:32:40;98360.53;;;24.91;66.65
50590;BME280;36547;50.514;30.840;2023-08-07T04:33:42;98353.00;;;24.93;66.80
50590;BME280;36547;50.514;30.840;2023-08-07T04:34:44;98350.10;;;24.94;66.62
50590;BME280;36547;50.514;30.840;2023-08-07T04:35:47;98353.41;;;24.96;66.44
50590;BME280;36547;50.514;30.840;2023-08-07T04:36:50;98354.25;;;24.97;66.58
50590;BME280;36547;50.514;30.840;2023-08-07T04:37:52;98352.16;;;24.99;66.35
50590;BME280;36547;50.514;30.840;2023-08-07T04:38:55;98342.95;;;25.00;66.43
50590;BME280;36547;50.514;30.840;2023-08-07T04:39:57;98348.39;;;25.00;66.56
50590;BME280;36547;50.514;30.840;2023-08-07T04:41:00;98342.11;;;24.99;66.48
50590;BME280;36547;50.514;30.840;2023-08-07T04:42:03;98345.67;;;25.00;66.30
50590;BME280;36547;50.514;30.840;2023-08-07T04:43:06;98339.61;;;24.98;66.28
50590;BME280;36547;50.514;30.840;2023-08-07T04:44:08;98339.82;;;24.96;66.23
50590;BME280;36547;50.514;30.840;2023-08-07T04:45:11;98337.73;;;24.92;66.24
50590;BME280;36547;50.514;30.840;2023-08-07T04:46:14;98337.73;;;24.92;66.34
50590;BME280;36547;50.514;30.840;2023-08-07T04:47:18;98336.28;;;24.89;66.47
50590;BME280;36547;50.514;30.840;2023-08-07T04:48:24;98335.45;;;24.89;66.61
50590;BME280;36547;50.514;30.840;2023-08-07T04:49:30;98334.40;;;24.90;66.79
50590;BME280;36547;50.514;30.840;2023-08-07T04:50:46;98338.78;;;24.91;66.68
50590;BME280;36547;50.514;30.840;2023-08-07T04:51:57;98338.78;;;24.91;66.59
50590;BME280;36547;50.514;30.840;2023-08-07T04:53:05;98331.25;;;24.93;66.68
50590;BME280;36547;50.514;30.840;2023-08-07T04:54:11;98326.47;;;24.95;66.69
50590;BME280;36547;50.514;30.840;2023-08-07T04:55:17;98321.88;;;24.95;66.47
50590;BME280;36547;50.514;30.840;2023-08-07T04:56:23;98327.06;;;24.97;66.51
50590;BME280;36547;50.514;30.840;2023-08-07T04:57:27;98322.46;;;24.97;66.67
50590;BME280;36547;50.514;30.840;2023-08-07T04:58:35;98324.13;;;24.98;66.56
50590;BME280;36547;50.514;30.840;2023-08-07T04:59:42;98318.70;;;24.98;66.63
50590;BME280;36547;50.514;30.840;2023-08-07T05:00:44;98324.97;;;24.99;66.54
50590;BME280;36547;50.514;30.840;2023-08-07T05:01:50;98318.70;;;24.98;66.23
50590;BME280;36547;50.514;30.840;2023-08-07T05:02:58;98318.70;;;24.98;66.47
50590;BME280;36547;50.514;30.840;2023-08-07T05:04:06;98323.30;;;24.98;66.69
50590;BME280;36547;50.514;30.840;2023-08-07T05:05:12;98318.91;;;24.97;66.74
50590;BME280;36547;50.514;30.840;2023-08-07T05:06:18;98318.91;;;24.97;66.81
50590;BME280;36547;50.514;30.840;2023-08-07T05:07:23;98310.75;;;24.97;66.96
50590;BME280;36547;50.514;30.840;2023-08-07T05:08:28;98312.42;;;24.98;66.75
50590;BME280;36547;50.514;30.840;2023-08-07T05:09:33;98306.16;;;24.97;66.86
50590;BME280;36547;50.514;30.840;2023-08-07T05:10:37;98305.94;;;24.99;66.90
50590;BME280;36547;50.514;30.840;2023-08-07T05:11:43;98321.20;;;25.00;66.65
50590;BME280;36547;50.514;30.840;2023-08-07T05:12:50;98314.72;;;25.01;66.90
50590;BME280;36547;50.514;30.840;2023-08-07T05:13:54;98300.29;;;25.00;66.80
50590;BME280;36547;50.514;30.840;2023-08-07T05:15:00;98305.52;;;25.02;66.88
50590;BME280;36547;50.514;30.840;2023-08-07T05:16:06;98296.92;;;25.05;67.12
50590;BME280;36547;50.514;30.840;2023-08-07T05:17:12;98304.66;;;25.08;67.09
50590;BME280;36547;50.514;30.840;2023-08-07T05:18:17;98296.50;;;25.08;66.53
50590;BME280;36547;50.514;30.840;2023-08-07T05:19:21;98291.68;;;25.10;66.64
50590;BME280;36547;50.514;30.840;2023-08-07T05:20:25;98290.60;;;25.11;66.68
50590;BME280;36547;50.514;30.840;2023-08-07T05:21:28;98308.37;;;25.14;66.80
50590;BME280;36547;50.514;30.840;2023-08-07T05:22:33;98294.56;;;25.15;66.69
50590;BME280;36547;50.514;30.840;2023-08-07T05:23:42;98300.63;;;25.17;66.76
50590;BME280;36547;50.514;30.840;2023-08-07T05:24:48;98293.91;;;25.20;66.83
50590;BME280;36547;50.514;30.840;2023-08-07T05:25:51;98293.70;;;25.21;66.79
50590;BME280;36547;50.514;30.840;2023-08-07T05:27:01;98306.87;;;25.24;66.66
50590;BME280;36547;50.514;30.840;2023-08-07T05:28:07;98298.70;;;25.24;66.43
50590;BME280;36547;50.514;30.840;2023-08-07T05:29:13;98295.74;;;25.26;66.56
50590;BME280;36547;50.514;30.840;2023-08-07T05:30:21;98303.91;;;25.26;66.38
50590;BME280;36547;50.514;30.840;2023-08-07T05:31:25;98302.02;;;25.26;66.35
50590;BME280;36547;50.514;30.840;2023-08-07T05:32:30;98293.86;;;25.26;66.34
50590;BME280;36547;50.514;30.840;2023-08-07T05:33:34;98298.87;;;25.29;66.29
50590;BME280;36547;50.514;30.840;2023-08-07T05:34:40;98296.58;;;25.26;65.80
50590;BME280;36547;50.514;30.840;2023-08-07T05:35:46;98294.91;;;25.25;65.82
50590;BME280;36547;50.514;30.840;2023-08-07T05:36:52;98297.62;;;25.25;66.07
50590;BME280;36547;50.514;30.840;2023-08-07T05:37:56;98298.92;;;25.23;66.25
50590;BME280;36547;50.514;30.840;2023-08-07T05:39:01;98294.31;;;25.23;66.32
50590;BME280;36547;50.514;30.840;2023-08-07T05:40:10;98296.20;;;25.23;66.59
50590;BME280;36547;50.514;30.840;2023-08-07T05:41:20;98298.92;;;25.23;66.47